Time;durP1;ratioP1;P1;durP2;ratioP2;P2;SDS_P1;SDS_P2;PMS_P1;PMS_P2;Temp;Humidity;BMP_temperature;BMP_pressure;BME280_temperature;BME280_humidity;BME280_pressure;Samples;Min_cycle;Max_cycle;Signal;HPM_P1;HPM_P2
2023/07/12 00:00:25;;;;;;;15.90;9.70;;;;;;;18.95;51.75;100194.67;110196;1267;21981;-82
2023/07/12 00:03:19;;;;;;;13.90;9.30;;;;;;;18.97;51.98;100191.17;110027;1263;23711;-80
2023/07/12 00:05:57;;;;;;;12.90;8.40;;;;;;;18.99;52.16;100189.23;110131;1252;23078;-80
2023/07/12 00:08:46;;;;;;;10.50;8.00;;;;;;;19.00;52.34;100183.52;110287;1258;22053;-81
2023/07/12 00:11:23;;;;;;;14.50;9.10;;;;;;;18.99;52.59;100180.26;110703;1258;21968;-81
2023/07/12 00:14:46;;;;;;;15.40;9.80;;;;;;;18.95;52.72;100174.52;111008;1258;22024;-81
2023/07/12 00:17:28;;;;;;;11.60;8.80;;;;;;;18.91;52.86;100160.89;110486;1258;439886;-83
2023/07/12 00:20:30;;;;;;;12.70;9.50;;;;;;;18.89;52.82;100149.64;110942;1258;22714;-82
2023/07/12 00:23:05;;;;;;;13.60;8.30;;;;;;;18.85;52.88;100144.95;111079;1257;22049;-82
2023/07/12 00:25:53;;;;;;;10.30;8.10;;;;;;;18.83;52.64;100140.71;110937;1257;21969;-81
2023/07/12 00:28:42;;;;;;;12.50;8.60;;;;;;;18.75;52.53;100137.94;110577;1261;23860;-82
2023/07/12 00:31:38;;;;;;;16.40;8.50;;;;;;;18.66;52.51;100134.58;110402;1263;23042;-80
2023/07/12 00:34:32;;;;;;;13.90;8.40;;;;;;;18.53;52.28;100136.20;110254;1264;21974;-82
2023/07/12 00:37:14;;;;;;;22.10;8.60;;;;;;;18.42;52.20;100132.85;110375;1264;22006;-79
2023/07/12 00:41:01;;;;;;;10.70;8.90;;;;;;;18.32;52.44;100128.63;110473;1252;22046;-81
2023/07/12 00:44:13;;;;;;;9.90;8.00;;;;;;;18.21;52.35;100126.80;110475;1264;23087;-80
2023/07/12 00:46:53;;;;;;;9.80;7.40;;;;;;;18.17;52.33;100128.87;110336;1264;21956;-81
2023/07/12 00:49:53;;;;;;;12.00;7.80;;;;;;;18.10;52.21;100124.75;110483;1261;23053;-81
2023/07/12 00:52:43;;;;;;;9.70;8.40;;;;;;;18.05;52.31;100123.71;110587;1261;21962;-80
2023/07/12 00:55:56;;;;;;;14.80;8.50;;;;;;;18.04;52.43;100124.36;110545;1261;21989;-80
2023/07/12 00:58:37;;;;;;;11.10;7.90;;;;;;;17.99;52.65;100126.65;110621;1261;21988;-81
2023/07/12 01:01:44;;;;;;;11.80;8.40;;;;;;;17.91;52.64;100133.16;110646;1255;21935;-81
2023/07/12 01:05:00;;;;;;;12.30;7.80;;;;;;;17.89;52.84;100132.80;110303;1263;23006;-79
2023/07/12 01:07:53;;;;;;;12.60;8.30;;;;;;;17.77;53.01;100122.22;109561;1270;21978;-78
2023/07/12 01:13:54;;;;;;;9.20;7.20;;;;;;;17.73;53.10;100128.96;108540;1283;22033;-79
2023/07/12 01:16:26;;;;;;;12.60;8.10;;;;;;;17.74;53.23;100126.25;108453;1283;22846;-81
2023/07/12 01:19:19;;;;;;;12.90;7.80;;;;;;;17.77;53.38;100122.70;108526;1282;23171;-81
2023/07/12 01:22:06;;;;;;;13.80;8.40;;;;;;;17.78;53.56;100112.73;108520;1283;23004;-81
2023/07/12 01:24:36;;;;;;;15.20;10.80;;;;;;;17.81;53.67;100107.48;108387;1286;23679;-80
2023/07/12 01:27:23;;;;;;;19.20;17.00;;;;;;;17.85;53.77;100103.87;108174;1286;23618;-78
2023/07/12 01:30:14;;;;;;;14.40;8.20;;;;;;;17.85;53.88;100102.60;108576;1281;21983;-80
2023/07/12 01:32:51;;;;;;;11.10;8.40;;;;;;;17.86;53.85;100100.25;108400;1281;21776;-81
2023/07/12 01:35:24;;;;;;;8.90;7.40;;;;;;;17.88;54.06;100100.14;108656;1281;22628;-81
2023/07/12 01:37:53;;;;;;;10.80;7.10;;;;;;;17.89;54.08;100098.30;108600;1277;23481;-81
2023/07/12 01:40:34;;;;;;;9.00;7.20;;;;;;;17.86;53.86;100091.10;108656;1281;22005;-81
2023/07/12 01:43:06;;;;;;;10.50;7.30;;;;;;;17.85;53.89;100086.41;108583;1279;22460;-81
2023/07/12 01:45:36;;;;;;;12.20;8.10;;;;;;;17.82;53.79;100084.55;109599;1269;22077;-81
2023/07/12 01:48:11;;;;;;;14.30;8.10;;;;;;;17.77;53.79;100080.31;109704;1269;22005;-81
2023/07/12 01:50:56;;;;;;;8.60;7.50;;;;;;;17.73;53.90;100073.91;109736;1265;22369;-80
2023/07/12 01:53:29;;;;;;;11.10;7.80;;;;;;;17.73;53.91;100069.66;110252;1265;22419;-81
2023/07/12 01:56:07;;;;;;;11.60;7.90;;;;;;;17.76;54.12;100066.25;110140;1265;21957;-80
2023/07/12 01:59:09;;;;;;;12.70;8.20;;;;;;;17.78;54.22;100061.73;110609;1258;21960;-81
2023/07/12 02:01:54;;;;;;;12.00;9.10;;;;;;;17.76;53.90;100057.98;110859;1258;21959;-82
2023/07/12 02:04:27;;;;;;;11.10;8.60;;;;;;;17.73;53.85;100051.90;110753;1258;22963;-82
2023/07/12 02:07:10;;;;;;;12.60;8.80;;;;;;;17.67;53.80;100047.91;110754;1258;22169;-80
2023/07/12 02:10:18;;;;;;;10.00;8.20;;;;;;;17.66;54.10;100039.56;110756;1258;22632;-82
2023/07/12 02:12:56;;;;;;;11.90;8.10;;;;;;;17.67;54.23;100035.45;110963;1246;23036;-82
2023/07/12 02:15:38;;;;;;;11.10;8.60;;;;;;;17.65;54.35;100036.09;110269;1258;22158;-84
2023/07/12 02:18:39;;;;;;;9.60;8.70;;;;;;;17.66;54.48;100033.73;110609;1258;21967;-82
2023/07/12 02:21:18;;;;;;;13.30;8.60;;;;;;;17.69;54.57;100028.74;110891;1258;21961;-80
2023/07/12 02:23:58;;;;;;;10.40;7.90;;;;;;;17.70;54.35;100029.59;111110;1258;23033;-83
2023/07/12 02:26:39;;;;;;;10.60;8.60;;;;;;;17.69;54.09;100022.61;110661;1257;23475;-81
2023/07/12 02:29:15;;;;;;;11.00;8.10;;;;;;;17.62;53.86;100009.92;110704;1258;22174;-84
2023/07/12 02:31:55;;;;;;;9.80;8.00;;;;;;;17.65;53.49;100014.11;110967;1258;22013;-80
2023/07/12 02:35:05;;;;;;;8.60;7.80;;;;;;;17.49;53.33;100001.52;110972;1258;23097;-81
2023/07/12 02:38:04;;;;;;;10.90;8.40;;;;;;;17.43;53.60;99998.31;110829;1258;21968;-82
2023/07/12 02:41:10;;;;;;;9.30;8.20;;;;;;;17.44;53.70;99995.77;110950;1258;22350;-78
2023/07/12 02:44:28;;;;;;;11.40;9.00;;;;;;;17.44;53.63;100000.50;110923;1258;23683;-81
2023/07/12 02:47:14;;;;;;;13.90;9.50;;;;;;;17.40;53.92;100002.69;109943;1265;21975;-82
2023/07/12 02:49:48;;;;;;;16.00;9.30;;;;;;;17.38;54.08;99997.56;110134;1265;21965;-83
2023/07/12 02:52:43;;;;;;;11.00;8.40;;;;;;;17.41;54.35;99994.02;110103;1265;21978;-81
2023/07/12 02:55:22;;;;;;;11.20;8.00;;;;;;;17.48;54.70;99984.77;110131;1265;23053;-80
2023/07/12 02:58:03;;;;;;;9.60;7.70;;;;;;;17.51;54.74;99969.21;109387;1271;22450;-79
2023/07/12 03:00:38;;;;;;;11.70;8.10;;;;;;;17.62;54.68;99974.08;109391;1271;22964;-79
2023/07/12 03:03:18;;;;;;;11.10;8.00;;;;;;;17.66;54.59;99971.82;109662;1271;21973;-80
2023/07/12 03:06:20;;;;;;;8.90;6.60;;;;;;;17.69;54.61;99966.16;109650;1268;22987;-79
2023/07/12 03:08:59;;;;;;;7.40;6.60;;;;;;;17.72;54.48;99962.20;109532;1271;21982;-79
2023/07/12 03:11:43;;;;;;;10.20;6.30;;;;;;;17.69;54.16;99943.23;109693;1271;22853;-80
2023/07/12 03:14:24;;;;;;;7.60;6.00;;;;;;;17.73;53.80;99936.98;109494;1271;23496;-81
2023/07/12 03:17:05;;;;;;;10.10;6.70;;;;;;;17.83;53.55;99942.96;109970;1265;23662;-80
2023/07/12 03:19:42;;;;;;;9.50;6.50;;;;;;;17.88;53.27;99942.61;109484;1271;23628;-82
2023/07/12 03:22:35;;;;;;;11.10;10.00;;;;;;;17.92;53.22;99940.16;109504;1270;23731;-80
2023/07/12 03:25:16;;;;;;;6.80;6.10;;;;;;;17.98;53.03;99936.02;110163;1264;21975;-80
2023/07/12 03:28:01;;;;;;;10.10;9.10;;;;;;;18.05;52.81;99938.86;110280;1264;22734;-81
2023/07/12 03:30:38;;;;;;;11.00;7.70;;;;;;;18.11;52.48;99939.11;110501;1264;24456;-81
2023/07/12 03:33:22;;;;;;;8.20;6.20;;;;;;;18.18;52.24;99944.00;110330;1264;22749;-81
2023/07/12 03:36:00;;;;;;;7.10;6.00;;;;;;;18.25;51.96;99949.34;110514;1258;22058;-80
2023/07/12 03:38:33;;;;;;;6.90;6.00;;;;;;;18.29;51.82;99951.46;110630;1258;22599;-81
2023/07/12 03:41:38;;;;;;;13.30;7.30;;;;;;;18.33;51.75;99951.54;110904;1258;21987;-81
2023/07/12 03:44:11;;;;;;;13.20;6.80;;;;;;;18.35;51.70;99952.21;110079;1266;21966;-81
2023/07/12 03:46:44;;;;;;;7.30;6.10;;;;;;;18.39;51.56;99951.05;110157;1266;22005;-81
2023/07/12 03:49:15;;;;;;;7.90;6.40;;;;;;;18.45;51.74;99947.44;110345;1266;21968;-81
2023/07/12 03:51:53;;;;;;;8.50;6.40;;;;;;;18.53;51.56;99943.83;109750;1270;21975;-81
2023/07/12 03:54:49;;;;;;;8.60;6.50;;;;;;;18.58;51.54;99944.98;109318;1270;22668;-79
2023/07/12 03:57:25;;;;;;;9.70;6.10;;;;;;;18.64;51.51;99936.77;109521;1270;23770;-81
2023/07/12 03:59:58;;;;;;;8.60;6.60;;;;;;;18.71;51.51;99932.17;109790;1258;23079;-80
2023/07/12 04:02:34;;;;;;;10.90;5.80;;;;;;;18.76;51.50;99926.70;109495;1270;23038;-81
2023/07/12 04:05:05;;;;;;;7.10;6.40;;;;;;;18.84;51.39;99922.54;108943;1276;21702;-81
2023/07/12 04:07:59;;;;;;;11.60;6.60;;;;;;;18.95;51.42;99920.61;108794;1279;21977;-80
2023/07/12 04:10:41;;;;;;;6.70;5.00;;;;;;;19.10;51.56;99916.95;108531;1282;21997;-80
2023/07/12 04:13:16;;;;;;;7.50;5.60;;;;;;;19.25;50.98;99911.88;108506;1284;22034;-81
2023/07/12 04:16:04;;;;;;;6.70;4.70;;;;;;;19.40;50.61;99908.08;108530;1284;23521;-83
2023/07/12 04:18:45;;;;;;;9.20;5.40;;;;;;;19.55;50.24;99904.67;108173;1287;23829;-81
2023/07/12 04:21:35;;;;;;;10.20;5.20;;;;;;;19.73;50.03;99899.04;108340;1278;23149;-81
2023/07/12 04:24:22;;;;;;;10.50;5.50;;;;;;;19.86;49.82;99877.81;108685;1278;23066;-81
2023/07/12 04:27:03;;;;;;;9.70;4.90;;;;;;;20.10;49.26;99881.47;109336;1273;21985;-81
2023/07/12 04:29:46;;;;;;;8.70;5.30;;;;;;;20.23;48.77;99874.94;109607;1268;21969;-81
2023/07/12 04:32:26;;;;;;;10.50;5.70;;;;;;;20.36;48.47;99859.70;109564;1268;23699;-82
2023/07/12 04:35:38;;;;;;;6.70;5.00;;;;;;;20.50;48.23;99858.02;110061;1268;21973;-83
2023/07/12 04:39:00;;;;;;;6.60;5.00;;;;;;;20.62;47.71;99858.77;110711;1258;22087;-85
2023/07/12 04:42:07;;;;;;;6.20;4.80;;;;;;;20.65;47.30;99845.59;110371;1264;24307;-83
2023/07/12 04:45:28;;;;;;;6.20;4.60;;;;;;;20.67;46.93;99849.36;110173;1263;21968;-83
2023/07/12 04:48:57;;;;;;;7.20;4.10;;;;;;;20.72;46.88;99855.59;110531;1264;22064;-83
2023/07/12 04:52:21;;;;;;;7.10;4.00;;;;;;;20.73;46.80;99839.39;110346;1266;21972;-82
2023/07/12 04:55:30;;;;;;;6.90;4.20;;;;;;;20.86;46.62;99849.27;109947;1266;22979;-82
2023/07/12 04:58:31;;;;;;;5.60;4.20;;;;;;;20.92;46.44;99860.76;109829;1266;23016;-84
2023/07/12 05:01:34;;;;;;;8.10;4.90;;;;;;;20.95;46.40;99868.95;110254;1266;24460;-84
2023/07/12 05:04:44;;;;;;;7.40;4.10;;;;;;;20.97;46.24;99872.86;109963;1267;21941;-82
2023/07/12 05:08:05;;;;;;;7.00;4.40;;;;;;;20.94;46.60;99875.90;110150;1266;23790;-83
2023/07/12 05:10:48;;;;;;;7.90;4.50;;;;;;;20.94;46.53;99877.50;109479;1272;22106;-83
2023/07/12 05:13:54;;;;;;;6.80;4.10;;;;;;;20.93;46.52;99885.61;109889;1268;21758;-83
2023/07/12 05:17:07;;;;;;;6.30;4.30;;;;;;;20.87;46.81;99889.61;109946;1268;23696;-83
2023/07/12 05:20:23;;;;;;;8.40;4.50;;;;;;;20.80;47.12;99887.61;109948;1267;22792;-83
2023/07/12 05:24:01;;;;;;;;;;;;;;;;;;;;;
2023/07/12 05:27:03;;;;;;;10.00;4.60;;;;;;;20.68;47.88;99884.06;108666;1279;23017;-80
2023/07/12 05:30:15;;;;;;;6.90;4.90;;;;;;;20.69;48.18;99882.73;108886;1276;22997;-79
2023/07/12 05:33:09;;;;;;;6.00;4.20;;;;;;;20.76;48.25;99876.30;108892;1278;22051;-80
2023/07/12 05:36:15;;;;;;;6.20;4.80;;;;;;;20.85;48.22;99870.02;108893;1279;21983;-80
2023/07/12 05:38:58;;;;;;;6.60;4.20;;;;;;;20.94;48.28;99861.77;108890;1279;23737;-80
2023/07/12 05:41:46;;;;;;;7.60;4.60;;;;;;;21.04;48.02;99859.16;108876;1279;21997;-80
2023/07/12 05:44:45;;;;;;;10.90;5.10;;;;;;;21.12;47.91;99856.65;108900;1279;23008;-80
2023/07/12 05:47:28;;;;;;;7.50;5.00;;;;;;;21.18;47.78;99852.16;108889;1278;21994;-80
2023/07/12 05:50:08;;;;;;;7.40;4.80;;;;;;;21.25;47.77;99846.95;108728;1276;22770;-80
2023/07/12 05:52:53;;;;;;;8.10;5.20;;;;;;;21.33;47.63;99840.95;109103;1276;21996;-83
2023/07/12 05:55:37;;;;;;;5.90;4.30;;;;;;;21.40;47.47;99837.98;109465;1271;22172;-81
2023/07/12 05:58:34;;;;;;;6.10;4.20;;;;;;;21.49;47.45;99831.38;109437;1271;23692;-79
2023/07/12 06:01:26;;;;;;;9.40;4.70;;;;;;;21.56;47.33;99832.92;110058;1265;21965;-82
2023/07/12 06:04:12;;;;;;;5.00;4.40;;;;;;;21.61;47.16;99834.04;110423;1259;23075;-80
2023/07/12 06:06:47;;;;;;;8.70;5.00;;;;;;;21.65;47.10;99841.61;110206;1265;23622;-80
2023/07/12 06:12:19;;;;;;;6.80;4.20;;;;;;;21.61;47.30;99822.98;109731;1269;21962;-80
2023/07/12 06:14:54;;;;;;;5.70;4.10;;;;;;;21.65;47.35;99823.66;109371;1271;21969;-79
2023/07/12 06:17:38;;;;;;;7.60;4.00;;;;;;;21.71;47.46;99818.77;109341;1273;22999;-80
2023/07/12 06:20:23;;;;;;;;;;;;;;;;;;;;;
2023/07/12 06:22:59;;;;;;;7.80;4.70;;;;;;;21.81;47.08;99804.69;109374;1272;23042;-80
2023/07/12 06:25:42;;;;;;;21.80;4.80;;;;;;;21.86;46.83;99804.26;109042;1275;22005;-83
2023/07/12 06:28:31;;;;;;;8.50;5.00;;;;;;;21.90;46.63;99800.52;109116;1275;23013;-81
2023/07/12 06:31:09;;;;;;;7.10;4.40;;;;;;;21.94;46.58;99794.23;108925;1275;21979;-80
2023/07/12 06:33:43;;;;;;;7.00;4.10;;;;;;;22.01;46.40;99780.89;109277;1272;21976;-82
2023/07/12 06:36:30;;;;;;;6.80;4.20;;;;;;;22.09;46.30;99772.72;109446;1272;21946;-85
2023/07/12 06:39:17;;;;;;;4.70;4.10;;;;;;;22.17;46.11;99771.13;109282;1273;22786;-81
2023/07/12 06:42:30;;;;;;;5.30;4.00;;;;;;;22.27;46.04;99765.52;109530;1273;21978;-85
2023/07/12 06:46:08;;;;;;;9.90;5.40;;;;;;;22.37;45.97;99763.13;109618;1272;23791;-79
2023/07/12 06:48:58;;;;;;;69.80;11.50;;;;;;;22.51;45.97;99759.77;108893;1276;21986;-79
2023/07/12 06:52:12;;;;;;;10.70;5.10;;;;;;;22.69;45.90;99755.77;108789;1281;21585;-84
2023/07/12 06:54:51;;;;;;;7.10;4.60;;;;;;;22.90;45.89;99761.13;108711;1281;21998;-77
2023/07/12 06:57:57;;;;;;;8.90;4.70;;;;;;;23.15;45.70;99757.83;108823;1277;22740;-78
2023/07/12 07:01:06;;;;;;;6.30;4.70;;;;;;;23.42;45.88;99760.08;108480;1281;22243;-78
2023/07/12 07:04:32;;;;;;;7.00;4.80;;;;;;;23.66;45.09;99755.32;108746;1280;21994;-79
2023/07/12 07:07:47;;;;;;;;;;;;;;;;;;;;;
2023/07/12 07:10:42;;;;;;;8.80;5.80;;;;;;;24.21;44.36;99746.85;108447;1280;21988;-77
2023/07/12 07:13:30;;;;;;;11.00;5.10;;;;;;;24.55;43.95;99748.63;108493;1282;23813;-76
2023/07/12 07:16:59;;;;;;;;;;;;;;;;;;;;;
2023/07/12 07:20:35;;;;;;;10.60;5.20;;;;;;;25.43;42.79;99760.47;107798;1293;23062;-78
2023/07/12 07:23:49;;;;;;;10.50;5.40;;;;;;;25.68;41.86;99760.23;107709;1293;22011;-78
2023/07/12 07:26:52;;;;;;;;;;;;;;;;;;;;;
2023/07/12 07:29:35;;;;;;;7.30;5.00;;;;;;;25.89;40.95;99762.27;108087;1288;24208;-79
2023/07/12 07:32:30;;;;;;;;;;;;;;;;;;;;;
2023/07/12 07:35:05;;;;;;;9.00;5.30;;;;;;;25.80;40.98;99762.15;108410;1282;22022;-78
2023/07/12 07:38:02;;;;;;;5.70;4.90;;;;;;;25.81;41.35;99762.04;108683;1277;23698;-80
2023/07/12 07:41:17;;;;;;;10.00;5.40;;;;;;;25.79;41.24;99755.45;108446;1281;22988;-79
2023/07/12 07:44:10;;;;;;;7.00;5.20;;;;;;;25.87;41.08;99762.27;108408;1285;22186;-76
2023/07/12 07:47:23;;;;;;;7.30;5.20;;;;;;;25.89;40.99;99765.27;108459;1285;21979;-79
2023/07/12 07:50:36;;;;;;;6.90;5.50;;;;;;;25.88;40.92;99768.02;108511;1283;24318;-79
2023/07/12 07:53:26;;;;;;;13.50;7.70;;;;;;;25.86;40.89;99771.80;108498;1282;23075;-78
2023/07/12 07:56:37;;;;;;;7.60;6.00;;;;;;;25.85;41.16;99771.36;108621;1275;22119;-78
2023/07/12 07:59:54;;;;;;;;;;;;;;;;;;;;;
2023/07/12 08:03:12;;;;;;;;;;;;;;;;;;;;;
2023/07/12 08:06:24;;;;;;;9.70;5.50;;;;;;;26.00;41.44;99762.30;110956;1257;23683;-78
2023/07/12 08:09:09;;;;;;;12.50;5.30;;;;;;;26.08;41.24;99752.66;110681;1256;22020;-79
2023/07/12 08:12:20;;;;;;;;;;;;;;;;;;;;;
2023/07/12 08:15:33;;;;;;;8.50;5.20;;;;;;;26.31;41.84;99744.86;110187;1262;21981;-79
2023/07/12 08:18:24;;;;;;;;;;;;;;;26.47;41.88;99745.55;110428;1262;22813;-80
2023/07/12 08:21:29;;;;;;;14.20;6.40;;;;;;;26.55;41.97;99742.21;110394;1262;21961;-79
2023/07/12 08:24:17;;;;;;;10.40;6.50;;;;;;;26.70;41.67;99737.72;110045;1268;21973;-79
2023/07/12 08:27:15;;;;;;;9.20;5.40;;;;;;;26.96;41.44;99741.31;109900;1268;22031;-79
2023/07/12 08:29:58;;;;;;;14.20;6.60;;;;;;;27.19;41.18;99742.17;110213;1268;22897;-79
2023/07/12 08:33:13;;;;;;;8.10;6.20;;;;;;;27.36;41.08;99742.34;110367;1263;21971;-81
2023/07/12 08:36:29;;;;;;;12.20;5.70;;;;;;;27.54;40.87;99742.94;110226;1263;23893;-78
2023/07/12 08:39:19;;;;;;;8.70;5.90;;;;;;;27.76;40.45;99747.14;109871;1262;23147;-78
2023/07/12 08:41:55;;;;;;;10.40;6.40;;;;;;;27.91;39.99;99761.15;109877;1263;22101;-81
2023/07/12 08:45:04;;;;;;;12.00;6.40;;;;;;;28.09;40.07;99763.63;110339;1263;22495;-78
2023/07/12 08:48:19;;;;;;;13.20;5.20;;;;;;;28.19;39.61;99759.63;110441;1263;22231;-80
2023/07/12 08:50:58;;;;;;;13.20;6.20;;;;;;;28.23;39.51;99754.43;109505;1270;22058;-78
2023/07/12 08:53:39;;;;;;;12.70;6.80;;;;;;;28.32;39.31;99753.67;109576;1270;22662;-80
2023/07/12 08:56:20;;;;;;;12.10;6.10;;;;;;;28.30;39.26;99754.61;109412;1270;21958;-79
2023/07/12 08:58:57;;;;;;;19.60;6.70;;;;;;;28.18;39.22;99750.33;109242;1270;23614;-78
2023/07/12 09:02:03;;;;;;;13.80;6.00;;;;;;;28.03;39.54;99755.34;109762;1269;22743;-79
2023/07/12 09:04:49;;;;;;;12.70;6.90;;;;;;;27.86;39.68;99758.40;109023;1274;22049;-80
2023/07/12 09:07:50;;;;;;;16.80;6.60;;;;;;;27.71;40.20;99762.58;109088;1274;21983;-79
2023/07/12 09:10:59;;;;;;;24.40;7.10;;;;;;;27.53;40.55;99766.05;109155;1274;21977;-82
2023/07/12 09:13:46;;;;;;;11.10;6.10;;;;;;;27.35;40.98;99770.60;108500;1284;23776;-78
2023/07/12 09:16:37;;;;;;;8.10;6.50;;;;;;;27.20;41.16;99771.70;108712;1276;23783;-80
2023/07/12 09:19:31;;;;;;;15.70;6.20;;;;;;;27.10;41.67;99769.89;108730;1280;23634;-77
2023/07/12 09:22:23;;;;;;;12.30;7.10;;;;;;;26.97;42.22;99769.30;108689;1276;21979;-78
2023/07/12 09:25:05;;;;;;;19.10;6.40;;;;;;;26.86;42.43;99777.80;108802;1281;21988;-78
2023/07/12 09:27:49;;;;;;;23.50;7.60;;;;;;;26.75;42.61;99794.09;108799;1276;22740;-79
2023/07/12 09:30:41;;;;;;;11.70;6.30;;;;;;;26.63;42.89;99809.40;108794;1279;21756;-78
2023/07/12 09:34:25;;;;;;;6.50;5.90;;;;;;;26.45;43.34;99817.14;109062;1275;21957;-78
2023/07/12 09:37:23;;;;;;;7.90;5.70;;;;;;;26.36;43.71;99818.08;108931;1275;22394;-79
2023/07/12 09:40:49;;;;;;;11.30;6.60;;;;;;;26.24;44.07;99820.52;108948;1275;21994;-78
2023/07/12 09:43:33;;;;;;;12.70;6.90;;;;;;;26.17;44.51;99824.17;109409;1266;22370;-76
2023/07/12 09:47:02;;;;;;;8.00;6.20;;;;;;;26.12;44.85;99831.73;109784;1266;22038;-77
2023/07/12 09:50:30;;;;;;;8.00;6.50;;;;;;;26.02;45.24;99813.20;110607;1260;21964;-77
2023/07/12 09:53:40;;;;;;;10.00;6.40;;;;;;;25.95;45.47;99797.45;110003;1267;22037;-78
2023/07/12 09:56:50;;;;;;;12.30;6.10;;;;;;;25.91;45.74;99807.98;110054;1267;21983;-78
2023/07/12 10:00:04;;;;;;;11.00;7.20;;;;;;;25.91;46.07;99816.73;110144;1266;22897;-78
2023/07/12 10:03:13;;;;;;;8.90;6.40;;;;;;;25.94;46.05;99816.17;110063;1267;21983;-78
2023/07/12 10:06:20;;;;;;;7.70;6.70;;;;;;;25.98;46.06;99816.71;109301;1272;23726;-77
2023/07/12 10:09:01;;;;;;;7.70;6.40;;;;;;;26.04;45.95;99822.77;109266;1272;21978;-77
2023/07/12 10:11:44;;;;;;;7.00;5.30;;;;;;;26.07;45.87;99822.80;109647;1265;23072;-76
2023/07/12 10:14:20;;;;;;;8.40;6.00;;;;;;;26.09;45.88;99821.48;109787;1266;21973;-77
2023/07/12 10:16:56;;;;;;;11.10;5.40;;;;;;;26.07;45.95;99818.77;110043;1266;23033;-77
2023/07/12 10:19:40;;;;;;;9.60;6.00;;;;;;;26.04;46.19;99815.85;110070;1266;21978;-78
2023/07/12 10:22:41;;;;;;;9.80;5.90;;;;;;;26.01;46.53;99819.40;110088;1265;21972;-78
2023/07/12 10:25:44;;;;;;;14.30;5.30;;;;;;;25.98;46.81;99819.55;110669;1257;23027;-78
2023/07/12 10:29:04;;;;;;;27.80;6.40;;;;;;;25.97;47.17;99822.20;110308;1265;21984;-79
2023/07/12 10:32:03;;;;;;;9.60;6.10;;;;;;;25.93;47.30;99823.27;110480;1265;22146;-79
2023/07/12 10:34:44;;;;;;;10.60;7.10;;;;;;;25.92;47.38;99820.52;109940;1269;21976;-80
2023/07/12 10:37:33;;;;;;;11.50;6.00;;;;;;;25.94;47.62;99814.11;109101;1273;21981;-79
2023/07/12 10:40:25;;;;;;;11.10;6.50;;;;;;;25.97;47.81;99815.00;109201;1273;21979;-78
2023/07/12 10:43:55;;;;;;;;;;;;;;;;;;;;;
2023/07/12 10:46:45;;;;;;;10.50;5.90;;;;;;;26.13;47.70;99808.21;108886;1277;23609;-79
2023/07/12 10:49:43;;;;;;;9.50;5.70;;;;;;;26.22;47.53;99802.05;108429;1280;22006;-78
2023/07/12 10:52:29;;;;;;;10.90;6.20;;;;;;;26.33;47.24;99796.77;108447;1283;22084;-78
2023/07/12 10:55:37;;;;;;;9.70;6.60;;;;;;;26.43;46.95;99790.89;108579;1279;22079;-77
2023/07/12 10:58:23;;;;;;;6.80;6.00;;;;;;;26.49;46.53;99791.67;108609;1278;23045;-78
2023/07/12 11:01:40;;;;;;;8.80;5.50;;;;;;;26.53;46.56;99784.96;108367;1285;21994;-77
2023/07/12 11:04:33;;;;;;;7.50;5.60;;;;;;;26.68;46.64;99788.35;108187;1286;23653;-78
2023/07/12 11:07:22;;;;;;;19.50;9.40;;;;;;;26.84;46.46;99793.19;108827;1278;22026;-80
2023/07/12 11:10:02;;;;;;;18.80;9.80;;;;;;;27.03;46.05;99792.45;108900;1276;22049;-78
2023/07/12 11:12:40;;;;;;;18.70;9.50;;;;;;;27.20;45.55;99797.78;108952;1276;21950;-79
2023/07/12 11:15:12;;;;;;;10.30;6.40;;;;;;;27.34;45.00;99798.23;109414;1270;21999;-78
2023/07/12 11:18:09;;;;;;;8.00;6.60;;;;;;;27.46;44.79;99789.25;109687;1270;21983;-78
2023/07/12 11:21:03;;;;;;;13.40;6.60;;;;;;;27.65;44.50;99783.31;110220;1263;22752;-77
2023/07/12 11:23:45;;;;;;;9.90;6.40;;;;;;;27.81;44.15;99782.11;110644;1262;23025;-79
2023/07/12 11:27:06;;;;;;;9.40;7.20;;;;;;;27.91;43.64;99773.45;110739;1262;23967;-78
2023/07/12 11:30:14;;;;;;;11.60;7.20;;;;;;;27.98;43.33;99764.92;110498;1262;22000;-77
2023/07/12 11:33:01;;;;;;;12.30;7.90;;;;;;;28.08;42.90;99762.10;110499;1255;22902;-78
2023/07/12 11:35:58;;;;;;;11.70;6.70;;;;;;;28.16;42.69;99755.19;110587;1262;21997;-77
2023/07/12 11:38:56;;;;;;;11.80;6.80;;;;;;;28.23;42.64;99747.14;110675;1262;23032;-78
2023/07/12 11:41:54;;;;;;;7.20;6.40;;;;;;;28.32;42.44;99743.58;110675;1257;23023;-80
2023/07/12 11:44:32;;;;;;;10.20;6.70;;;;;;;28.41;42.46;99743.96;110035;1265;23718;-78
2023/07/12 11:47:16;;;;;;;7.90;7.10;;;;;;;28.51;42.27;99738.30;109731;1269;22988;-78
2023/07/12 11:49:57;;;;;;;6.10;5.40;;;;;;;28.62;42.04;99739.22;109336;1273;22003;-79
2023/07/12 11:52:29;;;;;;;8.30;5.10;;;;;;;28.72;41.98;99733.30;109286;1273;24327;-79
2023/07/12 11:55:07;;;;;;;6.20;5.60;;;;;;;28.77;41.57;99732.02;109357;1273;21992;-80
2023/07/12 11:57:43;;;;;;;8.50;5.80;;;;;;;28.81;41.57;99737.94;109203;1273;23164;-79
2023/07/12 12:00:26;;;;;;;11.00;6.00;;;;;;;28.92;41.65;99736.61;109165;1273;21985;-81
2023/07/12 12:03:06;;;;;;;12.80;5.30;;;;;;;29.01;41.31;99739.73;109394;1273;23696;-78
2023/07/12 12:05:53;;;;;;;6.10;4.20;;;;;;;29.03;40.63;99740.53;109536;1268;23041;-79
2023/07/12 12:08:47;;;;;;;;;;;;;;;;;;;;;
2023/07/12 12:12:00;;;;;;;;;;;;;;;;;;;;;
2023/07/12 12:14:41;;;;;;;8.90;5.10;;;;;;;29.12;40.35;99725.27;110294;1261;23692;-77
2023/07/12 12:17:37;;;;;;;7.30;5.10;;;;;;;29.21;40.42;99720.58;108449;1262;2544092;-77
2023/07/12 12:20:25;;;;;;;7.50;4.50;;;;;;;29.30;40.26;99717.34;110181;1260;22875;-79
2023/07/12 12:23:16;;;;;;;4.60;4.00;;;;;;;29.38;39.84;99718.84;110533;1262;23625;-77
2023/07/12 12:25:48;;;;;;;6.00;4.80;;;;;;;29.42;39.58;99720.73;110521;1262;21964;-77
2023/07/12 12:28:39;;;;;;;6.00;4.20;;;;;;;29.43;39.13;99714.24;109797;1268;22476;-77
2023/07/12 12:31:11;;;;;;;;;;;;;;;29.50;39.16;99711.40;109357;1272;23037;-78
2023/07/12 12:33:51;;;;;;;7.40;5.20;;;;;;;29.57;39.22;99710.83;109754;1268;23767;-78
2023/07/12 12:36:29;;;;;;;12.00;3.90;;;;;;;29.72;39.00;99713.59;109238;1274;21967;-77
2023/07/12 12:39:09;;;;;;;8.20;3.90;;;;;;;29.82;38.53;99715.96;108940;1278;21991;-78
2023/07/12 12:41:45;;;;;;;5.50;4.30;;;;;;;29.89;38.27;99716.16;108852;1279;23731;-77
2023/07/12 12:44:18;;;;;;;6.70;3.80;;;;;;;29.93;38.10;99718.54;108757;1279;22001;-76
2023/07/12 12:46:57;;;;;;;6.00;3.70;;;;;;;29.93;37.91;99725.49;108805;1275;23729;-76
2023/07/12 12:49:34;;;;;;;6.50;3.80;;;;;;;29.92;37.65;99726.98;109318;1270;22049;-76
2023/07/12 12:52:27;;;;;;;8.60;4.00;;;;;;;29.89;37.86;99728.29;109451;1270;21995;-76
2023/07/12 12:55:08;;;;;;;4.30;3.50;;;;;;;29.85;37.70;99725.79;109880;1265;22008;-78
2023/07/12 12:58:12;;;;;;;4.00;3.50;;;;;;;29.83;37.88;99724.21;110623;1257;23029;-76
2023/07/12 13:01:14;;;;;;;6.30;4.30;;;;;;;29.79;38.00;99730.68;110707;1257;21960;-77
2023/07/12 13:04:08;;;;;;;10.50;4.20;;;;;;;29.74;38.17;99733.92;110568;1262;23601;-77
2023/07/12 13:06:41;;;;;;;5.80;4.00;;;;;;;29.71;38.21;99732.31;110330;1266;22098;-78
2023/07/12 13:09:25;;;;;;;8.40;3.80;;;;;;;29.66;38.16;99737.06;109501;1271;22972;-77
2023/07/12 13:12:04;;;;;;;10.20;4.30;;;;;;;29.61;38.01;99741.30;109452;1271;21977;-79
2023/07/12 13:14:47;;;;;;;12.50;5.10;;;;;;;29.56;38.24;99739.06;109607;1271;22009;-79
2023/07/12 13:17:30;;;;;;;5.70;3.90;;;;;;;29.52;38.36;99739.76;109506;1271;21976;-76
2023/07/12 13:20:04;;;;;;;5.10;4.20;;;;;;;29.49;38.31;99740.67;109414;1271;22412;-78
2023/07/12 13:22:46;;;;;;;4.90;3.90;;;;;;;29.47;38.32;99743.60;109076;1275;23620;-79
2023/07/12 13:25:40;;;;;;;9.10;4.90;;;;;;;29.46;38.49;99743.14;108878;1278;24480;-79
2023/07/12 13:28:28;;;;;;;5.40;3.70;;;;;;;29.46;38.55;99747.23;108491;1284;22005;-77
2023/07/12 13:31:02;;;;;;;6.10;4.40;;;;;;;29.44;38.61;99744.41;108389;1284;21998;-79
2023/07/12 13:33:33;;;;;;;6.50;3.90;;;;;;;29.42;38.70;99744.59;108599;1279;23615;-77
2023/07/12 13:36:20;;;;;;;8.10;4.30;;;;;;;29.40;38.67;99749.54;108735;1279;21990;-77
2023/07/12 13:39:14;;;;;;;10.10;4.00;;;;;;;29.35;38.60;99753.40;109090;1275;22007;-78